Time;durP1;ratioP1;P1;durP2;ratioP2;P2;SDS_P1;SDS_P2;PMS_P1;PMS_P2;Temp;Humidity;BMP_temperature;BMP_pressure;BME280_temperature;BME280_humidity;BME280_pressure;Samples;Min_cycle;Max_cycle;Signal;HPM_P1;HPM_P2
2021/12/13 00:01:45;;;;;;;16.07;10.33;;;;;;;;;;5105691;28;20221;-79
2021/12/13 00:04:18;;;;;;;13.50;9.23;;;;;;;;;;5100698;28;20640;-79
2021/12/13 00:06:46;;;;;;;17.00;9.90;;;;;;;;;;5103858;28;20565;-79
2021/12/13 00:09:17;;;;;;;13.80;10.07;;;;;;;;;;5100480;27;20232;-79
2021/12/13 00:11:46;;;;;;;16.23;9.83;;;;;;;;;;5101119;28;20224;-79
2021/12/13 00:14:16;;;;;;;15.43;10.10;;;;;;;;;;5104021;28;20228;-79
2021/12/13 00:16:45;;;;;;;16.57;10.03;;;;;;;;;;5104643;28;20207;-80
2021/12/13 00:19:15;;;;;;;20.30;10.93;;;;;;;;;;5106705;28;20228;-79
2021/12/13 00:21:43;;;;;;;16.63;10.57;;;;;;;;;;5106422;28;20221;-79
2021/12/13 00:24:11;;;;;;;17.23;10.90;;;;;;;;;;5100943;28;20699;-79
2021/12/13 00:26:40;;;;;;;15.90;11.03;;;;;;;;;;5103167;28;20224;-79
2021/12/13 00:29:09;;;;;;;19.73;11.93;;;;;;;;;;5101601;28;20240;-80
2021/12/13 00:31:41;;;;;;;19.47;12.37;;;;;;;;;;5106081;28;20231;-79
2021/12/13 00:34:13;;;;;;;18.30;12.43;;;;;;;;;;5103034;28;20270;-79
2021/12/13 00:36:43;;;;;;;20.03;12.23;;;;;;;;;;5105170;28;20202;-79
2021/12/13 00:39:13;;;;;;;21.17;12.33;;;;;;;;;;5101377;28;20232;-80
2021/12/13 00:41:42;;;;;;;18.07;11.37;;;;;;;;;;5101662;28;20235;-79
2021/12/13 00:44:12;;;;;;;19.07;10.90;;;;;;;;;;5099784;28;20251;-78
2021/12/13 00:46:40;;;;;;;19.57;12.03;;;;;;;;;;5103536;28;20227;-78
2021/12/13 00:49:10;;;;;;;19.53;12.03;;;;;;;;;;5103395;28;20712;-79
2021/12/13 00:51:38;;;;;;;19.80;11.93;;;;;;;;;;5104828;28;20546;-78
2021/12/13 00:54:18;;;;;;;19.90;12.20;;;;;;;;;;5099145;28;20236;-79
2021/12/13 00:56:48;;;;;;;19.70;11.83;;;;;;;;;;5096984;28;20189;-79
2021/12/13 00:59:21;;;;;;;16.10;11.63;;;;;;;;;;5104992;28;20251;-78
2021/12/13 01:01:51;;;;;;;20.93;13.37;;;;;;;;;;5101737;28;20236;-79
2021/12/13 01:04:18;;;;;;;23.37;12.80;;;;;;;;;;5100552;28;20239;-79
2021/12/13 01:07:15;;;;;;;22.23;13.40;;;;;;;;;;5107699;28;20220;-78
2021/12/13 01:10:16;;;;;;;19.27;12.53;;;;;;;;;;5097084;28;20231;-79
2021/12/13 01:12:43;;;;;;;19.53;12.37;;;;;;;;;;5102541;28;20220;-79
2021/12/13 01:15:14;;;;;;;23.30;12.77;;;;;;;;;;5100798;28;20629;-78
2021/12/13 01:17:51;;;;;;;19.60;13.03;;;;;;;;;;5097300;28;20676;-79
2021/12/13 01:20:26;;;;;;;22.37;13.43;;;;;;;;;;5099799;28;20260;-79
2021/12/13 01:22:57;;;;;;;22.87;13.60;;;;;;;;;;5101120;28;21039;-79
2021/12/13 01:25:41;;;;;;;23.17;12.83;;;;;;;;;;5100407;28;20227;-80
2021/12/13 01:28:13;;;;;;;20.77;12.50;;;;;;;;;;5105918;28;20224;-79
2021/12/13 01:30:43;;;;;;;22.13;13.40;;;;;;;;;;5101663;28;20239;-79
2021/12/13 01:33:13;;;;;;;20.90;12.90;;;;;;;;;;5102272;28;20207;-80
2021/12/13 01:35:41;;;;;;;24.17;13.77;;;;;;;;;;5119166;28;20211;-78
2021/12/13 01:38:11;;;;;;;23.23;13.90;;;;;;;;;;5110438;28;20196;-79
2021/12/13 01:40:42;;;;;;;20.03;12.30;;;;;;;;;;5104192;28;20239;-79
2021/12/13 01:43:13;;;;;;;20.13;12.93;;;;;;;;;;5098118;28;20245;-79
2021/12/13 01:45:41;;;;;;;19.90;11.43;;;;;;;;;;5100448;28;20598;-79
2021/12/13 01:48:15;;;;;;;19.13;12.43;;;;;;;;;;5104489;28;20200;-79
2021/12/13 01:50:47;;;;;;;20.23;12.93;;;;;;;;;;5103690;28;20227;-80
2021/12/13 01:53:14;;;;;;;22.23;13.20;;;;;;;;;;5103594;28;20199;-79
2021/12/13 01:55:46;;;;;;;19.00;13.07;;;;;;;;;;5101898;28;20228;-79
2021/12/13 01:58:36;;;;;;;20.90;12.53;;;;;;;;;;5096774;28;20203;-78
2021/12/13 02:01:10;;;;;;;19.90;12.40;;;;;;;;;;5100130;28;20235;-79
2021/12/13 02:03:42;;;;;;;24.37;13.07;;;;;;;;;;5095927;28;20201;-79
2021/12/13 02:06:09;;;;;;;19.00;11.77;;;;;;;;;;5098537;28;20228;-78
2021/12/13 02:08:37;;;;;;;19.33;11.37;;;;;;;;;;5104234;28;20562;-79
2021/12/13 02:11:05;;;;;;;17.33;11.90;;;;;;;;;;5108135;28;20224;-79
2021/12/13 02:13:38;;;;;;;16.03;10.47;;;;;;;;;;5104129;28;20203;-79
2021/12/13 02:18:53;;;;;;;16.40;10.67;;;;;;;;;;5109517;28;20211;-79
2021/12/13 02:21:26;;;;;;;16.43;10.13;;;;;;;;;;5106867;28;20236;-79
2021/12/13 02:23:56;;;;;;;15.03;10.10;;;;;;;;;;5106282;28;20192;-79
2021/12/13 02:26:25;;;;;;;18.60;10.43;;;;;;;;;;5102850;28;20212;-79
2021/12/13 02:28:57;;;;;;;16.00;11.00;;;;;;;;;;5103495;27;20664;-79
2021/12/13 02:31:27;;;;;;;17.17;10.67;;;;;;;;;;5100749;28;20704;-78
2021/12/13 02:33:57;;;;;;;14.43;10.20;;;;;;;;;;5103984;28;20222;-79
2021/12/13 02:36:25;;;;;;;16.23;9.87;;;;;;;;;;5100539;28;20197;-79
2021/12/13 02:38:54;;;;;;;19.00;10.67;;;;;;;;;;5101440;28;20197;-79
2021/12/13 02:41:25;;;;;;;13.73;9.50;;;;;;;;;;5105865;28;20234;-79
2021/12/13 02:44:02;;;;;;;14.13;8.70;;;;;;;;;;5106057;28;20219;-79
2021/12/13 02:46:29;;;;;;;15.13;10.20;;;;;;;;;;5102720;28;20208;-79
2021/12/13 02:48:58;;;;;;;13.57;10.40;;;;;;;;;;5107067;28;20201;-79
2021/12/13 02:51:28;;;;;;;15.67;10.03;;;;;;;;;;5102994;28;20242;-79
2021/12/13 02:53:57;;;;;;;15.00;10.17;;;;;;;;;;5116090;22;20215;-81
2021/12/13 02:56:26;;;;;;;14.33;9.40;;;;;;;;;;5041334;28;20206;-80
2021/12/13 02:58:54;;;;;;;15.20;10.13;;;;;;;;;;5051942;28;20209;-80
2021/12/13 03:01:25;;;;;;;15.47;10.53;;;;;;;;;;5038906;28;20222;-80
2021/12/13 03:03:57;;;;;;;20.00;10.83;;;;;;;;;;5055187;28;20195;-80
2021/12/13 03:06:26;;;;;;;16.40;11.37;;;;;;;;;;5053647;28;20271;-80
2021/12/13 03:08:59;;;;;;;18.00;10.13;;;;;;;;;;5056005;28;20236;-80
2021/12/13 03:11:31;;;;;;;17.27;10.40;;;;;;;;;;5074955;28;20208;-80
2021/12/13 03:14:00;;;;;;;17.93;10.90;;;;;;;;;;5071783;28;20230;-80
2021/12/13 03:16:28;;;;;;;16.77;10.97;;;;;;;;;;5053944;28;20201;-80
2021/12/13 03:18:57;;;;;;;19.33;11.20;;;;;;;;;;5035841;28;20690;-80
2021/12/13 03:21:47;;;;;;;16.90;10.30;;;;;;;;;;5022549;28;20199;-80
2021/12/13 03:24:24;;;;;;;14.70;10.53;;;;;;;;;;5035456;28;20277;-80
2021/12/13 03:27:07;;;;;;;17.80;11.20;;;;;;;;;;5047169;28;20223;-80
2021/12/13 03:29:42;;;;;;;18.37;10.17;;;;;;;;;;5033962;28;20261;-80
2021/12/13 03:32:10;;;;;;;17.57;10.67;;;;;;;;;;5041120;28;20198;-80
2021/12/13 03:34:39;;;;;;;15.80;10.40;;;;;;;;;;5053800;28;20705;-80
2021/12/13 03:37:09;;;;;;;17.53;10.43;;;;;;;;;;5052590;28;20598;-80
2021/12/13 03:39:38;;;;;;;21.17;11.03;;;;;;;;;;5049607;28;20234;-80
2021/12/13 03:42:09;;;;;;;16.83;10.30;;;;;;;;;;5044998;28;20692;-80
2021/12/13 03:44:37;;;;;;;11.30;8.87;;;;;;;;;;5054307;28;20242;-80
2021/12/13 03:47:08;;;;;;;15.40;10.30;;;;;;;;;;5043911;28;20227;-80
2021/12/13 03:49:38;;;;;;;16.10;10.60;;;;;;;;;;5036014;28;20341;-80
2021/12/13 03:52:06;;;;;;;18.00;11.13;;;;;;;;;;5035045;28;20195;-80
2021/12/13 03:54:38;;;;;;;16.57;10.27;;;;;;;;;;5047242;28;20237;-80
2021/12/13 03:57:05;;;;;;;17.17;10.43;;;;;;;;;;5053940;28;20198;-80
2021/12/13 03:59:35;;;;;;;16.50;10.23;;;;;;;;;;5030671;28;20242;-80
2021/12/13 04:02:04;;;;;;;16.70;10.80;;;;;;;;;;5034954;28;20202;-80
2021/12/13 04:04:35;;;;;;;18.33;11.20;;;;;;;;;;5033657;28;20683;-80
2021/12/13 04:07:07;;;;;;;18.07;10.60;;;;;;;;;;5038445;28;20222;-80
2021/12/13 04:09:34;;;;;;;19.50;12.20;;;;;;;;;;5053919;28;20348;-80
2021/12/13 04:12:04;;;;;;;21.80;11.17;;;;;;;;;;5053896;28;20210;-79
2021/12/13 04:14:36;;;;;;;16.87;10.70;;;;;;;;;;5052832;28;20240;-80
2021/12/13 04:17:19;;;;;;;18.03;11.20;;;;;;;;;;5053662;28;20194;-80
2021/12/13 04:19:48;;;;;;;16.87;11.07;;;;;;;;;;5041278;28;20375;-80
2021/12/13 04:22:17;;;;;;;18.10;11.90;;;;;;;;;;5034832;28;20667;-80
2021/12/13 04:24:47;;;;;;;14.80;10.63;;;;;;;;;;5033594;28;20238;-80
2021/12/13 04:27:18;;;;;;;18.73;11.20;;;;;;;;;;5051246;28;20706;-80
2021/12/13 04:29:46;;;;;;;19.70;10.70;;;;;;;;;;5047401;28;20253;-80
2021/12/13 04:32:16;;;;;;;17.03;11.80;;;;;;;;;;5054320;28;20214;-80
2021/12/13 04:34:44;;;;;;;16.73;10.73;;;;;;;;;;5054195;28;20241;-80
2021/12/13 04:37:12;;;;;;;14.93;10.20;;;;;;;;;;5054314;28;20210;-80
2021/12/13 04:39:40;;;;;;;16.87;11.33;;;;;;;;;;5053865;28;20721;-80
2021/12/13 04:42:08;;;;;;;16.30;11.10;;;;;;;;;;5053379;28;20297;-80
2021/12/13 04:44:37;;;;;;;14.77;11.13;;;;;;;;;;5053330;28;20290;-80
2021/12/13 04:47:06;;;;;;;20.80;12.37;;;;;;;;;;5053792;28;20225;-80
2021/12/13 04:49:36;;;;;;;17.03;11.77;;;;;;;;;;5053105;28;20759;-80
2021/12/13 04:52:05;;;;;;;14.67;11.60;;;;;;;;;;5054943;28;20198;-80
2021/12/13 04:54:34;;;;;;;18.57;12.10;;;;;;;;;;5053374;28;20242;-80
2021/12/13 04:57:02;;;;;;;20.33;11.47;;;;;;;;;;5053708;28;20577;-80
2021/12/13 04:59:30;;;;;;;19.57;13.37;;;;;;;;;;5053762;28;20229;-80
2021/12/13 05:01:59;;;;;;;19.77;12.23;;;;;;;;;;5055250;28;20205;-80
2021/12/13 05:04:29;;;;;;;16.37;11.70;;;;;;;;;;5053701;28;20245;-80
2021/12/13 05:06:58;;;;;;;17.40;11.87;;;;;;;;;;5053655;28;20265;-80
2021/12/13 05:09:25;;;;;;;17.67;11.97;;;;;;;;;;5054155;28;20237;-80
2021/12/13 05:11:54;;;;;;;19.30;13.17;;;;;;;;;;5042613;28;20210;-80
2021/12/13 05:14:29;;;;;;;18.63;12.80;;;;;;;;;;5027181;28;20284;-81
2021/12/13 05:16:58;;;;;;;18.47;12.90;;;;;;;;;;5036408;28;20260;-80
2021/12/13 05:19:27;;;;;;;17.93;12.83;;;;;;;;;;5042900;28;20237;-81
2021/12/13 05:21:56;;;;;;;20.77;13.23;;;;;;;;;;5056238;28;20217;-80
2021/12/13 05:24:27;;;;;;;20.03;13.70;;;;;;;;;;5055029;28;20675;-80
2021/12/13 05:26:55;;;;;;;17.63;13.43;;;;;;;;;;5055872;28;20237;-80
2021/12/13 05:29:24;;;;;;;19.43;13.03;;;;;;;;;;5053828;28;20239;-81
2021/12/13 05:31:52;;;;;;;18.60;12.30;;;;;;;;;;5054482;28;20206;-80
2021/12/13 05:34:19;;;;;;;17.77;12.23;;;;;;;;;;5054123;28;20237;-80
2021/12/13 05:36:54;;;;;;;17.23;12.70;;;;;;;;;;5054578;28;20206;-80
2021/12/13 05:39:21;;;;;;;21.53;12.70;;;;;;;;;;5054497;28;20229;-80
2021/12/13 05:41:52;;;;;;;17.73;12.63;;;;;;;;;;5055547;28;20542;-81
2021/12/13 05:44:24;;;;;;;17.83;12.07;;;;;;;;;;5054673;28;20230;-80
2021/12/13 05:46:51;;;;;;;19.50;13.07;;;;;;;;;;5055379;28;20226;-80
2021/12/13 05:49:20;;;;;;;20.30;13.40;;;;;;;;;;5054905;28;20234;-80
2021/12/13 05:51:49;;;;;;;18.33;13.40;;;;;;;;;;5055283;28;20217;-80
2021/12/13 05:54:21;;;;;;;25.27;15.07;;;;;;;;;;5054925;28;20284;-80
2021/12/13 05:56:49;;;;;;;16.97;12.67;;;;;;;;;;5054527;28;20206;-80
2021/12/13 05:59:22;;;;;;;61.67;34.40;;;;;;;;;;5052394;28;20237;-80
2021/12/13 06:01:58;;;;;;;52.93;29.20;;;;;;;;;;5053545;28;20228;-80
2021/12/13 06:04:32;;;;;;;53.47;35.07;;;;;;;;;;5055459;28;20237;-81
2021/12/13 06:06:59;;;;;;;20.27;13.90;;;;;;;;;;5057212;28;20245;-81
2021/12/13 06:09:44;;;;;;;26.53;15.57;;;;;;;;;;5063962;28;20651;-83
2021/12/13 06:12:14;;;;;;;22.43;13.00;;;;;;;;;;5077303;28;20196;-83
2021/12/13 06:14:44;;;;;;;22.87;14.00;;;;;;;;;;5066881;28;20249;-83
2021/12/13 06:17:14;;;;;;;18.60;13.27;;;;;;;;;;5055815;28;20206;-83
2021/12/13 06:19:46;;;;;;;18.57;13.07;;;;;;;;;;5054731;28;20237;-84
2021/12/13 06:22:14;;;;;;;20.33;13.33;;;;;;;;;;5055090;28;20225;-83
2021/12/13 06:24:43;;;;;;;20.83;13.33;;;;;;;;;;5054351;28;20264;-83
2021/12/13 06:27:12;;;;;;;17.03;12.07;;;;;;;;;;5055629;28;20241;-83
2021/12/13 06:30:04;;;;;;;18.10;12.70;;;;;;;;;;5055101;28;20230;-84
2021/12/13 06:32:33;;;;;;;19.00;13.37;;;;;;;;;;5055021;28;20750;-84
2021/12/13 06:35:01;;;;;;;19.40;12.97;;;;;;;;;;5054450;28;20241;-83
2021/12/13 06:37:30;;;;;;;19.20;12.40;;;;;;;;;;5055616;28;20183;-83
2021/12/13 06:40:19;;;;;;;19.13;13.20;;;;;;;;;;5054890;28;20238;-83
2021/12/13 06:42:46;;;;;;;17.37;11.97;;;;;;;;;;5056902;28;20213;-83
2021/12/13 06:45:27;;;;;;;18.83;12.23;;;;;;;;;;5052931;28;20287;-82
2021/12/13 06:47:55;;;;;;;17.27;12.67;;;;;;;;;;5051442;28;20217;-83
2021/12/13 06:50:24;;;;;;;19.17;12.60;;;;;;;;;;5051345;28;20244;-83
2021/12/13 06:52:52;;;;;;;20.57;12.23;;;;;;;;;;5055378;28;20217;-83
2021/12/13 06:55:20;;;;;;;17.73;12.70;;;;;;;;;;5054567;28;20325;-83
2021/12/13 06:57:51;;;;;;;19.97;12.83;;;;;;;;;;5055277;28;20662;-83
2021/12/13 07:00:26;;;;;;;20.63;12.87;;;;;;;;;;5055177;28;20241;-83
2021/12/13 07:02:56;;;;;;;19.17;12.67;;;;;;;;;;5058639;28;20236;-83
2021/12/13 07:05:27;;;;;;;16.03;11.97;;;;;;;;;;5058652;28;20241;-83
2021/12/13 07:07:56;;;;;;;17.00;12.30;;;;;;;;;;5056617;28;20210;-83
2021/12/13 07:10:24;;;;;;;27.73;15.77;;;;;;;;;;5054760;28;20594;-83
2021/12/13 07:12:52;;;;;;;22.07;14.67;;;;;;;;;;5055305;28;20206;-83
2021/12/13 07:15:28;;;;;;;20.13;13.70;;;;;;;;;;5055770;28;20241;-83
2021/12/13 07:18:05;;;;;;;23.20;14.70;;;;;;;;;;5056970;28;20202;-83
2021/12/13 07:20:36;;;;;;;22.37;14.70;;;;;;;;;;5056468;28;20244;-83
2021/12/13 07:23:04;;;;;;;21.33;14.40;;;;;;;;;;5056065;28;20641;-83
2021/12/13 07:25:35;;;;;;;20.13;13.33;;;;;;;;;;5056160;28;20717;-83
2021/12/13 07:28:03;;;;;;;20.03;13.83;;;;;;;;;;5057199;28;20268;-82
2021/12/13 07:30:31;;;;;;;21.07;13.37;;;;;;;;;;5057388;28;20233;-82
2021/12/13 07:32:59;;;;;;;19.20;13.07;;;;;;;;;;5057046;28;20217;-82
2021/12/13 07:35:31;;;;;;;20.23;14.00;;;;;;;;;;5057038;28;20238;-82
2021/12/13 07:38:00;;;;;;;20.90;13.53;;;;;;;;;;5057938;28;20201;-82
2021/12/13 07:40:29;;;;;;;20.43;12.33;;;;;;;;;;5057550;28;20260;-82
2021/12/13 07:42:59;;;;;;;23.57;13.63;;;;;;;;;;5057543;28;20209;-82
2021/12/13 07:45:28;;;;;;;19.13;13.03;;;;;;;;;;5056659;28;20234;-82
2021/12/13 07:47:55;;;;;;;20.83;12.40;;;;;;;;;;5057366;28;20232;-82
2021/12/13 07:50:23;;;;;;;19.30;13.80;;;;;;;;;;5057090;28;20233;-82
2021/12/13 07:52:56;;;;;;;23.07;13.57;;;;;;;;;;5057327;28;20213;-82
2021/12/13 07:55:26;;;;;;;16.93;11.90;;;;;;;;;;5031145;28;20257;-82
2021/12/13 07:57:55;;;;;;;17.40;11.90;;;;;;;;;;5036652;28;20264;-82
2021/12/13 08:00:25;;;;;;;20.40;13.17;;;;;;;;;;5035825;28;20237;-82
2021/12/13 08:02:55;;;;;;;22.67;13.57;;;;;;;;;;5037512;28;20214;-82
2021/12/13 08:05:24;;;;;;;19.20;13.47;;;;;;;;;;5036122;28;20253;-82
2021/12/13 08:07:54;;;;;;;19.07;12.10;;;;;;;;;;5037007;28;20230;-82
2021/12/13 08:10:25;;;;;;;17.27;12.10;;;;;;;;;;4936172;28;20651;-82
2021/12/13 08:12:54;;;;;;;18.33;13.57;;;;;;;;;;5036614;28;20210;-81
2021/12/13 08:15:23;;;;;;;19.73;12.50;;;;;;;;;;5034393;28;20246;-82
2021/12/13 08:17:51;;;;;;;19.50;11.53;;;;;;;;;;5035384;28;20202;-82
2021/12/13 08:20:25;;;;;;;19.63;11.87;;;;;;;;;;5035008;28;20258;-82
2021/12/13 08:22:52;;;;;;;18.80;11.90;;;;;;;;;;5036166;28;20619;-82
2021/12/13 08:25:20;;;;;;;22.10;12.27;;;;;;;;;;5035572;28;20241;-81
2021/12/13 08:27:52;;;;;;;20.20;12.57;;;;;;;;;;5037033;28;20249;-83
2021/12/13 08:30:21;;;;;;;20.37;14.03;;;;;;;;;;5036734;28;20234;-83
2021/12/13 08:32:56;;;;;;;19.90;12.60;;;;;;;;;;5037732;28;20206;-83
2021/12/13 08:35:23;;;;;;;26.80;14.37;;;;;;;;;;5036002;28;20784;-83
2021/12/13 08:37:55;;;;;;;23.00;13.00;;;;;;;;;;5037762;28;20202;-83
2021/12/13 08:40:23;;;;;;;18.80;12.13;;;;;;;;;;5036978;28;20230;-83
2021/12/13 08:42:52;;;;;;;21.63;12.93;;;;;;;;;;5037721;28;20213;-83
2021/12/13 08:45:22;;;;;;;24.63;14.03;;;;;;;;;;5036049;28;20241;-83
2021/12/13 08:47:51;;;;;;;25.93;15.53;;;;;;;;;;5037394;28;20223;-84
2021/12/13 08:50:20;;;;;;;28.87;15.27;;;;;;;;;;5036664;28;20237;-84
2021/12/13 08:52:48;;;;;;;27.40;15.30;;;;;;;;;;5038077;28;20202;-83
2021/12/13 08:55:19;;;;;;;24.20;14.83;;;;;;;;;;5048108;23;20643;-76
2021/12/13 08:57:51;;;;;;;22.70;13.80;;;;;;;;;;5031675;28;20222;-76
2021/12/13 09:00:26;;;;;;;26.13;14.43;;;;;;;;;;5017453;28;20238;-76
2021/12/13 09:02:55;;;;;;;22.97;13.37;;;;;;;;;;5012353;28;20213;-75
2021/12/13 09:05:24;;;;;;;24.73;15.20;;;;;;;;;;5021915;28;20241;-75
2021/12/13 09:07:54;;;;;;;23.47;13.10;;;;;;;;;;5031356;28;20237;-77
2021/12/13 09:10:22;;;;;;;21.30;14.80;;;;;;;;;;5031727;28;20238;-77
2021/12/13 09:12:57;;;;;;;26.83;15.00;;;;;;;;;;5027136;28;20199;-78
2021/12/13 09:15:28;;;;;;;24.93;14.57;;;;;;;;;;5029807;28;20241;-77
2021/12/13 09:17:55;;;;;;;32.40;15.80;;;;;;;;;;5031554;28;20298;-77
2021/12/13 09:20:25;;;;;;;27.50;15.63;;;;;;;;;;5033037;28;20223;-77
2021/12/13 09:22:53;;;;;;;24.13;15.30;;;;;;;;;;5031348;28;20209;-77
2021/12/13 09:25:27;;;;;;;24.63;15.73;;;;;;;;;;5059099;28;20237;-77
2021/12/13 09:27:57;;;;;;;24.40;15.17;;;;;;;;;;5071188;28;20569;-77
2021/12/13 09:30:28;;;;;;;22.53;15.50;;;;;;;;;;5071057;28;20241;-77
2021/12/13 09:32:58;;;;;;;27.43;14.60;;;;;;;;;;5071356;28;20213;-77
2021/12/13 09:35:30;;;;;;;25.43;14.73;;;;;;;;;;5070693;28;20257;-77
2021/12/13 09:37:58;;;;;;;23.50;14.97;;;;;;;;;;5052199;28;20205;-77
2021/12/13 09:40:31;;;;;;;24.03;14.27;;;;;;;;;;5051078;28;20237;-77
2021/12/13 09:42:59;;;;;;;22.43;13.93;;;;;;;;;;5050916;28;20210;-77
2021/12/13 09:45:29;;;;;;;23.00;16.10;;;;;;;;;;5056982;28;20729;-77
2021/12/13 09:47:56;;;;;;;26.63;16.50;;;;;;;;;;5050685;28;20226;-77
2021/12/13 09:50:25;;;;;;;24.67;15.37;;;;;;;;;;5051799;28;20225;-77
2021/12/13 09:52:54;;;;;;;22.43;15.00;;;;;;;;;;5054248;28;20209;-77
2021/12/13 09:55:22;;;;;;;20.77;13.07;;;;;;;;;;5050194;28;20237;-78
2021/12/13 09:57:51;;;;;;;20.53;13.97;;;;;;;;;;5051223;28;20590;-77
2021/12/13 10:00:20;;;;;;;25.37;14.17;;;;;;;;;;5050395;28;20242;-77
2021/12/13 10:02:51;;;;;;;21.80;14.43;;;;;;;;;;5051388;28;20190;-77
2021/12/13 10:05:20;;;;;;;20.90;13.63;;;;;;;;;;5049971;28;20234;-78
2021/12/13 10:07:51;;;;;;;18.67;13.63;;;;;;;;;;5051163;28;20237;-78
2021/12/13 10:10:21;;;;;;;23.13;13.87;;;;;;;;;;5050665;28;20717;-77
2021/12/13 10:12:50;;;;;;;16.97;12.77;;;;;;;;;;5051088;28;20303;-77
2021/12/13 10:15:19;;;;;;;19.40;13.10;;;;;;;;;;5049844;28;20242;-77
2021/12/13 10:17:48;;;;;;;15.23;11.27;;;;;;;;;;5050835;28;20198;-78
2021/12/13 10:20:18;;;;;;;16.43;11.23;;;;;;;;;;5050361;28;20295;-77
2021/12/13 10:22:45;;;;;;;17.07;10.23;;;;;;;;;;5050884;28;20583;-78
2021/12/13 10:25:14;;;;;;;15.27;11.30;;;;;;;;;;5049731;28;20257;-77
2021/12/13 10:27:41;;;;;;;15.03;11.47;;;;;;;;;;5054950;28;20206;-78
2021/12/13 10:30:10;;;;;;;14.57;10.57;;;;;;;;;;5053931;28;20230;-78
2021/12/13 10:32:41;;;;;;;15.53;10.47;;;;;;;;;;5054930;28;20213;-78
2021/12/13 10:35:09;;;;;;;14.07;10.10;;;;;;;;;;5053398;28;20237;-78
2021/12/13 10:37:39;;;;;;;16.10;10.33;;;;;;;;;;5047827;28;20202;-77
2021/12/13 10:40:09;;;;;;;15.20;9.70;;;;;;;;;;5054023;28;20234;-78
2021/12/13 10:42:38;;;;;;;15.33;9.77;;;;;;;;;;5061909;28;20630;-77
2021/12/13 10:45:06;;;;;;;12.17;9.07;;;;;;;;;;5054022;28;20242;-78
2021/12/13 10:47:35;;;;;;;12.87;9.97;;;;;;;;;;5054155;28;20229;-78
2021/12/13 10:50:04;;;;;;;14.93;10.13;;;;;;;;;;5054164;28;20234;-79
2021/12/13 10:52:32;;;;;;;14.50;9.43;;;;;;;;;;5053907;28;20212;-78
2021/12/13 10:55:02;;;;;;;13.07;9.53;;;;;;;;;;5054886;28;20252;-77
2021/12/13 10:57:31;;;;;;;17.23;10.27;;;;;;;;;;5054631;28;20206;-79
2021/12/13 10:59:59;;;;;;;14.17;10.33;;;;;;;;;;5054860;28;20261;-78
2021/12/13 11:02:29;;;;;;;13.50;9.40;;;;;;;;;;5055819;28;20205;-79
2021/12/13 11:04:58;;;;;;;17.37;8.97;;;;;;;;;;5054597;28;20234;-78
2021/12/13 11:07:26;;;;;;;13.43;9.13;;;;;;;;;;5055610;28;20209;-79
2021/12/13 11:09:54;;;;;;;10.00;7.73;;;;;;;;;;5054826;28;20260;-79
2021/12/13 11:12:24;;;;;;;11.07;8.23;;;;;;;;;;5053311;28;20206;-76
2021/12/13 11:14:54;;;;;;;13.70;8.87;;;;;;;;;;5052531;28;20240;-76
2021/12/13 11:17:24;;;;;;;12.30;8.33;;;;;;;;;;5053660;28;20202;-76
2021/12/13 11:19:52;;;;;;;11.47;8.80;;;;;;;;;;5052750;28;20230;-76
2021/12/13 11:22:21;;;;;;;13.23;10.10;;;;;;;;;;5053185;28;20202;-76
2021/12/13 11:24:49;;;;;;;12.07;9.53;;;;;;;;;;5052022;28;20248;-76
2021/12/13 11:27:17;;;;;;;13.00;9.03;;;;;;;;;;5052882;28;20202;-75
2021/12/13 11:29:46;;;;;;;15.03;9.80;;;;;;;;;;5052654;28;20237;-76
2021/12/13 11:32:42;;;;;;;11.90;8.93;;;;;;;;;;5052752;28;20214;-76
2021/12/13 11:35:30;;;;;;;10.87;7.53;;;;;;;;;;5054928;28;20740;-78
2021/12/13 11:38:01;;;;;;;11.07;8.37;;;;;;;;;;5053454;28;20212;-79
2021/12/13 11:40:38;;;;;;;11.03;7.70;;;;;;;;;;5053519;28;20283;-78
2021/12/13 11:43:29;;;;;;;11.13;8.00;;;;;;;;;;5053922;28;20217;-78
2021/12/13 11:46:27;;;;;;;10.70;8.10;;;;;;;;;;5036995;28;20252;-77
2021/12/13 11:49:13;;;;;;;11.60;7.03;;;;;;;;;;5052888;28;20242;-77
2021/12/13 11:52:04;;;;;;;11.10;7.83;;;;;;;;;;5053206;28;20214;-78
2021/12/13 11:54:49;;;;;;;12.20;8.40;;;;;;;;;;5013579;28;20235;-77
2021/12/13 11:57:36;;;;;;;11.60;8.50;;;;;;;;;;5052826;28;20217;-77
2021/12/13 12:00:22;;;;;;;15.70;8.73;;;;;;;;;;5052567;28;20241;-78
2021/12/13 12:03:04;;;;;;;11.47;8.97;;;;;;;;;;5052697;28;20216;-77
2021/12/13 12:06:04;;;;;;;12.13;9.17;;;;;;;;;;5051765;28;20721;-77
2021/12/13 12:08:48;;;;;;;13.77;9.13;;;;;;;;;;5052596;28;20343;-77
2021/12/13 12:11:33;;;;;;;14.67;9.17;;;;;;;;;;5032549;28;20238;-77
2021/12/13 12:14:06;;;;;;;11.10;8.73;;;;;;;;;;5031993;28;20230;-77
2021/12/13 12:16:36;;;;;;;12.87;10.07;;;;;;;;;;5032587;28;20737;-77
2021/12/13 12:19:05;;;;;;;11.97;8.80;;;;;;;;;;5034747;28;20628;-77
2021/12/13 12:21:41;;;;;;;11.87;9.10;;;;;;;;;;5052547;28;20252;-77
2021/12/13 12:24:11;;;;;;;9.57;7.97;;;;;;;;;;5053577;28;20235;-77
2021/12/13 12:26:38;;;;;;;11.77;8.30;;;;;;;;;;5072787;28;20216;-78
2021/12/13 12:29:08;;;;;;;12.70;9.37;;;;;;;;;;5062103;28;20583;-78
2021/12/13 12:31:36;;;;;;;10.50;8.40;;;;;;;;;;5067415;28;20225;-77
2021/12/13 12:34:05;;;;;;;9.47;8.47;;;;;;;;;;5060265;28;20230;-78
2021/12/13 12:36:41;;;;;;;11.90;8.43;;;;;;;;;;5064157;28;20205;-78
2021/12/13 12:39:44;;;;;;;12.70;9.20;;;;;;;;;;5072277;28;20272;-77
2021/12/13 12:42:18;;;;;;;10.60;8.23;;;;;;;;;;5072327;28;20283;-77
2021/12/13 12:44:59;;;;;;;10.07;8.60;;;;;;;;;;5071280;28;20233;-78
2021/12/13 12:47:49;;;;;;;11.93;8.77;;;;;;;;;;5071887;28;20209;-77
2021/12/13 12:50:17;;;;;;;9.77;8.53;;;;;;;;;;5051182;28;20253;-78
2021/12/13 12:52:48;;;;;;;10.43;8.50;;;;;;;;;;5051931;28;20234;-76
2021/12/13 12:55:16;;;;;;;10.03;8.17;;;;;;;;;;5051453;28;20252;-78
2021/12/13 12:57:43;;;;;;;9.57;7.47;;;;;;;;;;5054111;28;20205;-78
2021/12/13 13:00:11;;;;;;;11.27;8.33;;;;;;;;;;5053520;28;20869;-78
2021/12/13 13:02:38;;;;;;;11.10;7.70;;;;;;;;;;5052200;28;20665;-77
2021/12/13 13:05:06;;;;;;;11.50;8.40;;;;;;;;;;5058143;28;20645;-77
2021/12/13 13:07:34;;;;;;;12.50;8.70;;;;;;;;;;5066058;28;20202;-77
2021/12/13 13:10:18;;;;;;;14.10;8.40;;;;;;;;;;5070915;28;20245;-77
2021/12/13 13:12:45;;;;;;;14.63;8.13;;;;;;;;;;5072468;28;20215;-77
2021/12/13 13:15:14;;;;;;;11.13;7.97;;;;;;;;;;5070429;28;20245;-77
2021/12/13 13:17:42;;;;;;;11.67;8.07;;;;;;;;;;5068140;28;20202;-77
2021/12/13 13:20:11;;;;;;;10.93;8.60;;;;;;;;;;5061676;28;20233;-78
2021/12/13 13:22:40;;;;;;;10.83;8.63;;;;;;;;;;5071403;28;20205;-77
2021/12/13 13:25:11;;;;;;;9.70;8.17;;;;;;;;;;5065719;28;20237;-77
2021/12/13 13:27:39;;;;;;;15.00;11.17;;;;;;;;;;5057081;28;20201;-77
2021/12/13 13:30:08;;;;;;;13.00;9.27;;;;;;;;;;5062136;28;20233;-77
2021/12/13 13:32:37;;;;;;;10.83;8.30;;;;;;;;;;5062323;28;20221;-77
2021/12/13 13:35:05;;;;;;;11.47;7.80;;;;;;;;;;5057850;28;20711;-78
2021/12/13 13:37:34;;;;;;;11.37;8.73;;;;;;;;;;5065432;28;20543;-77
2021/12/13 13:40:02;;;;;;;12.30;7.80;;;;;;;;;;5070521;28;20274;-77
2021/12/13 13:42:32;;;;;;;11.67;8.20;;;;;;;;;;5071341;28;20212;-78
2021/12/13 13:45:01;;;;;;;10.23;8.13;;;;;;;;;;5069919;28;20241;-77
2021/12/13 13:47:30;;;;;;;9.60;7.47;;;;;;;;;;5071121;28;20209;-77
2021/12/13 13:49:57;;;;;;;12.73;8.20;;;;;;;;;;5053065;28;20256;-75
2021/12/13 13:52:26;;;;;;;13.57;8.60;;;;;;;;;;5050807;28;20214;-74
2021/12/13 13:54:54;;;;;;;11.43;8.50;;;;;;;;;;5049591;28;20767;-75
2021/12/13 13:57:23;;;;;;;12.73;8.57;;;;;;;;;;5050725;28;20577;-75
2021/12/13 13:59:53;;;;;;;10.43;8.47;;;;;;;;;;5051548;28;20316;-76
2021/12/13 14:02:23;;;;;;;13.63;8.53;;;;;;;;;;5054830;28;20210;-75
2021/12/13 14:04:55;;;;;;;10.67;8.10;;;;;;;;;;5049897;28;20245;-78
2021/12/13 14:07:25;;;;;;;13.97;8.63;;;;;;;;;;5069484;28;20287;-78
2021/12/13 14:09:55;;;;;;;11.00;8.60;;;;;;;;;;5074679;28;20236;-76
2021/12/13 14:12:27;;;;;;;12.10;8.57;;;;;;;;;;5057784;28;20205;-76
2021/12/13 14:14:57;;;;;;;14.73;8.70;;;;;;;;;;5052525;28;20245;-77
2021/12/13 14:17:35;;;;;;;15.43;9.03;;;;;;;;;;5054402;28;20210;-76
2021/12/13 14:20:07;;;;;;;12.13;8.83;;;;;;;;;;5053276;28;20236;-76
2021/12/13 14:22:34;;;;;;;12.50;8.57;;;;;;;;;;5054641;28;20212;-76
2021/12/13 14:25:01;;;;;;;12.40;9.07;;;;;;;;;;5058426;28;20240;-76
2021/12/13 14:27:30;;;;;;;10.93;8.33;;;;;;;;;;5068430;28;20201;-76
2021/12/13 14:30:12;;;;;;;12.63;9.30;;;;;;;;;;5073581;28;20229;-76
2021/12/13 14:32:39;;;;;;;10.83;8.37;;;;;;;;;;5061623;28;20202;-76
2021/12/13 14:35:14;;;;;;;11.37;8.07;;;;;;;;;;5071428;28;20237;-76
2021/12/13 14:37:42;;;;;;;10.67;8.27;;;;;;;;;;5074313;28;20205;-75
2021/12/13 14:40:10;;;;;;;12.47;8.77;;;;;;;;;;5073833;28;20264;-76
2021/12/13 14:42:38;;;;;;;12.43;8.53;;;;;;;;;;5074358;28;20213;-77
2021/12/13 14:45:07;;;;;;;15.90;9.67;;;;;;;;;;5073378;28;20967;-77
2021/12/13 14:47:37;;;;;;;13.07;8.53;;;;;;;;;;5065815;28;20580;-76